Time;durP1;ratioP1;P1;durP2;ratioP2;P2;SDS_P1;SDS_P2;PMS_P1;PMS_P2;Temp;Humidity;BMP_temperature;BMP_pressure;BME280_temperature;BME280_humidity;BME280_pressure;Samples;Min_cycle;Max_cycle;Signal;HPM_P1;HPM_P2
2024/01/21 08:41:51;;;;;;;27.50;16.07;;;-0.20;99.90;;;;;;10610521;27;20837;-89
2024/01/21 08:46:55;;;;;;;33.57;16.47;;;-1.30;99.90;;;;;;10568950;28;20285;-89
2024/01/21 08:51:58;;;;;;;24.13;16.23;;;-0.90;99.90;;;;;;10568259;28;20294;-87
2024/01/21 08:57:00;;;;;;;40.63;16.47;;;-0.90;99.90;;;;;;10567939;28;20609;-86
2024/01/21 09:02:03;;;;;;;41.50;18.47;;;-1.40;99.90;;;;;;10550591;28;20228;-85
2024/01/21 09:07:08;;;;;;;35.70;15.57;;;-0.20;99.90;;;;;;10568637;28;20225;-87
2024/01/21 09:12:14;;;;;;;28.43;15.43;;;0.70;99.90;;;;;;10561591;28;20674;-87
2024/01/21 09:17:16;;;;;;;31.60;16.20;;;0.80;99.90;;;;;;10561085;28;20317;-89
2024/01/21 09:22:19;;;;;;;30.13;17.27;;;1.00;99.90;;;;;;10568540;28;20229;-91
2024/01/21 09:27:23;;;;;;;27.97;15.73;;;0.90;99.90;;;;;;10562209;28;20209;-91
2024/01/21 09:32:28;;;;;;;30.27;17.63;;;1.00;99.90;;;;;;10568196;28;20193;-91
2024/01/21 09:37:31;;;;;;;26.60;16.40;;;1.20;99.90;;;;;;10566187;28;20665;-91
2024/01/21 09:42:34;;;;;;;29.33;16.43;;;1.40;99.90;;;;;;10567651;28;20294;-90
2024/01/21 09:47:37;;;;;;;30.70;16.40;;;1.60;99.90;;;;;;10567523;28;20254;-91
2024/01/21 09:52:40;;;;;;;23.17;15.30;;;1.70;99.90;;;;;;10536276;28;20221;-89
2024/01/21 09:57:44;;;;;;;35.43;17.73;;;1.80;99.90;;;;;;10537362;28;20609;-88
2024/01/21 10:02:50;;;;;;;35.80;18.57;;;2.20;99.90;;;;;;10530718;28;20222;-89
2024/01/21 10:07:53;;;;;;;26.17;17.27;;;2.50;99.90;;;;;;10513301;28;20665;-86
2024/01/21 10:12:55;;;;;;;29.10;17.20;;;2.70;99.90;;;;;;10524822;28;20233;-83
2024/01/21 10:17:58;;;;;;;26.93;18.10;;;3.00;99.90;;;;;;10534340;28;20261;-85
2024/01/21 10:23:11;;;;;;;29.27;18.73;;;2.80;99.90;;;;;;10536723;28;20226;-86
2024/01/21 10:28:17;;;;;;;30.63;20.70;;;1.50;99.90;;;;;;10509472;28;20507;-84
2024/01/21 10:33:19;;;;;;;30.53;16.57;;;3.40;99.90;;;;;;10506071;28;20624;-85
2024/01/21 10:38:26;;;;;;;23.47;16.03;;;5.40;99.90;;;;;;10535702;28;20264;-85
2024/01/21 10:43:30;;;;;;;29.53;17.50;;;6.60;99.90;;;;;;10534747;28;20735;-86
2024/01/21 10:48:33;;;;;;;26.97;19.40;;;6.50;99.90;;;;;;10530202;28;20290;-84
2024/01/21 19:38:02;;;;;;;23.77;12.50;;;2.10;99.90;;;;;;10484655;28;20545;-82
2024/01/21 19:43:04;;;;;;;14.60;7.63;;;1.90;99.90;;;;;;10468248;28;20279;-83
2024/01/21 19:48:08;;;;;;;22.07;12.93;;;2.60;99.90;;;;;;10480684;28;20248;-85
2024/01/21 19:53:10;;;;;;;25.83;14.50;;;2.90;99.90;;;;;;10477344;28;20238;-86
2024/01/21 19:58:13;;;;;;;27.27;15.37;;;2.90;99.90;;;;;;10489019;28;20675;-87
2024/01/21 20:03:16;;;;;;;23.57;12.33;;;2.60;99.90;;;;;;10488170;28;20226;-88
2024/01/21 20:08:18;;;;;;;24.73;13.10;;;2.70;99.90;;;;;;10496765;28;20282;-86
2024/01/21 20:13:21;;;;;;;32.70;16.30;;;2.60;99.90;;;;;;10503325;28;20304;-88
2024/01/21 20:18:23;;;;;;;27.07;13.67;;;2.50;99.90;;;;;;10489807;28;20275;-86
2024/01/21 20:23:26;;;;;;;21.93;13.03;;;3.10;99.90;;;;;;10480194;28;20256;-81
2024/01/21 20:28:30;;;;;;;26.63;15.17;;;3.00;99.90;;;;;;10482164;28;20615;-80
2024/01/21 20:33:32;;;;;;;22.80;11.97;;;2.90;99.90;;;;;;10501389;28;20293;-86
2024/01/21 20:38:35;;;;;;;26.47;14.43;;;3.20;99.90;;;;;;10507241;28;20654;-85
2024/01/21 20:43:38;;;;;;;25.20;13.50;;;3.30;99.90;;;;;;10149962;28;10000375;-84
2024/01/21 20:48:42;;;;;;;33.43;14.67;;;3.20;99.90;;;;;;10459362;28;20292;-86
2024/01/21 20:53:48;;;;;;;21.57;11.57;;;3.30;99.90;;;;;;10465069;28;20242;-87
2024/01/21 20:58:51;;;;;;;20.83;11.53;;;3.50;99.90;;;;;;10460202;28;20230;-85
2024/01/21 21:03:54;;;;;;;22.87;9.90;;;4.00;99.90;;;;;;10446922;28;20293;-86
2024/01/21 21:08:56;;;;;;;25.83;13.97;;;4.20;99.90;;;;;;10454218;28;20227;-87
2024/01/21 21:13:59;;;;;;;21.23;11.03;;;4.00;99.90;;;;;;10451784;28;20243;-86
2024/01/21 21:19:03;;;;;;;20.50;11.33;;;3.90;99.90;;;;;;10446017;28;20227;-87
2024/01/21 21:24:06;;;;;;;26.40;13.43;;;3.80;99.90;;;;;;10451065;28;20227;-87
2024/01/21 21:29:12;;;;;;;20.17;11.33;;;3.80;99.90;;;;;;10449843;28;20227;-85
2024/01/21 21:34:14;;;;;;;24.43;12.30;;;4.10;99.90;;;;;;10449554;28;20696;-86
2024/01/21 21:39:17;;;;;;;20.03;11.07;;;4.00;99.90;;;;;;10437149;28;20235;-86
2024/01/21 21:44:20;;;;;;;21.97;11.23;;;3.90;99.90;;;;;;10449682;28;20235;-87
2024/01/21 21:49:23;;;;;;;19.03;10.67;;;4.00;99.90;;;;;;10449940;28;20915;-86
2024/01/21 21:54:26;;;;;;;16.47;10.07;;;3.90;99.90;;;;;;10445952;28;20667;-85
2024/01/21 21:59:29;;;;;;;18.27;10.63;;;3.80;99.90;;;;;;10449596;28;20231;-87
2024/01/21 22:04:31;;;;;;;24.40;12.37;;;3.60;99.90;;;;;;10448765;28;20230;-87
2024/01/21 22:09:34;;;;;;;23.73;12.67;;;3.60;99.90;;;;;;10448891;28;20288;-87
2024/01/21 22:14:36;;;;;;;24.67;12.77;;;3.70;99.90;;;;;;10444248;28;20714;-87
2024/01/21 22:19:39;;;;;;;20.73;11.60;;;3.70;99.90;;;;;;10442505;28;20219;-86
2024/01/21 22:24:42;;;;;;;27.03;11.93;;;3.70;99.90;;;;;;10447578;28;20231;-87
2024/01/21 22:29:45;;;;;;;25.17;12.40;;;4.00;99.90;;;;;;10447994;28;20234;-86
2024/01/21 22:34:48;;;;;;;23.33;13.53;;;3.90;99.90;;;;;;10446021;28;20259;-87
2024/01/21 22:39:50;;;;;;;16.93;10.57;;;3.70;99.90;;;;;;10447749;28;20235;-87
2024/01/21 22:44:53;;;;;;;21.83;11.63;;;3.40;99.90;;;;;;10448583;28;20238;-87
2024/01/21 22:49:55;;;;;;;18.23;10.80;;;3.30;99.90;;;;;;10435423;28;20238;-87
2024/01/21 22:54:58;;;;;;;19.67;10.70;;;3.40;99.90;;;;;;10446615;28;20254;-87
2024/01/21 23:00:04;;;;;;;17.23;9.47;;;3.40;99.90;;;;;;10447607;28;20278;-88
2024/01/21 23:05:07;;;;;;;18.90;10.63;;;3.20;99.90;;;;;;10449017;28;20222;-89
2024/01/21 23:10:10;;;;;;;20.00;11.27;;;3.10;99.90;;;;;;10439767;28;20240;-89
2024/01/21 23:15:13;;;;;;;18.60;10.53;;;2.90;99.90;;;;;;10452547;28;20304;-88
2024/01/21 23:20:16;;;;;;;18.23;11.10;;;2.70;99.90;;;;;;10454709;28;20257;-89
2024/01/21 23:25:21;;;;;;;16.70;10.33;;;2.60;99.90;;;;;;10451370;28;20611;-88
2024/01/21 23:30:24;;;;;;;20.03;10.27;;;2.60;99.90;;;;;;10449203;28;20207;-88
2024/01/21 23:35:26;;;;;;;20.37;10.57;;;2.40;99.90;;;;;;10452335;28;20262;-90
2024/01/21 23:40:29;;;;;;;19.73;10.73;;;2.40;99.90;;;;;;10453508;28;20687;-89
2024/01/21 23:45:31;;;;;;;19.87;11.63;;;2.30;99.90;;;;;;10449895;28;20264;-90
2024/01/21 23:50:34;;;;;;;18.67;10.10;;;2.40;99.90;;;;;;10449164;28;20341;-88
2024/01/21 23:55:37;;;;;;;19.07;12.13;;;2.50;99.90;;;;;;10448619;28;20277;-90
